createdAt,value
2018-12-22T00:00:30.517Z,98878.55
2018-12-22T00:03:01.644Z,98878.07
2018-12-22T00:05:32.719Z,98870.23
2018-12-22T00:08:03.795Z,98864.16
2018-12-22T00:10:34.890Z,98873.31
2018-12-22T00:13:06.082Z,98870.27
2018-12-22T00:15:37.174Z,98871.11
2018-12-22T00:18:08.251Z,98865.31
2018-12-22T00:20:39.436Z,98869.95
2018-12-22T00:23:10.509Z,98870.27
2018-12-22T00:25:41.600Z,98869.63
2018-12-22T00:28:12.657Z,98867.88
2018-12-22T00:30:43.756Z,98874.59
2018-12-22T00:33:15.814Z,98882.42
2018-12-22T00:35:47.030Z,98887.41
2018-12-22T00:38:18.190Z,98885.78
2018-12-22T00:40:49.277Z,98897.36
2018-12-22T00:43:20.355Z,98896.20
2018-12-22T00:45:51.436Z,98892.70
2018-12-22T00:48:22.486Z,98897.16
2018-12-22T00:50:53.569Z,98890.77
2018-12-22T00:53:24.631Z,98899.69
2018-12-22T00:55:55.719Z,98902.96
2018-12-22T00:58:30.649Z,98913.19
2018-12-22T01:01:00.095Z,98914.92
2018-12-22T01:03:31.167Z,98916.07
2018-12-22T01:06:02.251Z,98911.87
2018-12-22T01:08:33.321Z,98913.16
2018-12-22T01:11:04.406Z,98917.19
2018-12-22T01:13:35.477Z,98920.34
2018-12-22T01:16:06.557Z,98920.59
2018-12-22T01:18:37.651Z,98920.06
2018-12-22T01:21:08.761Z,98916.72
2018-12-22T01:23:39.719Z,98924.59
2018-12-22T01:26:10.820Z,98923.50
2018-12-22T01:28:41.898Z,98921.83
2018-12-22T01:31:13.010Z,98922.78
2018-12-22T01:33:44.183Z,98919.47
2018-12-22T01:36:15.271Z,98921.23
2018-12-22T01:38:46.361Z,98922.34
2018-12-22T01:41:17.356Z,98925.39
2018-12-22T01:43:48.338Z,98922.51
2018-12-22T01:46:19.432Z,98921.23
2018-12-22T01:48:50.419Z,98924.58
2018-12-22T01:51:21.416Z,98929.58
2018-12-22T01:53:52.511Z,98924.46
2018-12-22T01:56:24.683Z,98924.98
2018-12-22T01:58:55.774Z,98928.50
2018-12-22T02:01:26.881Z,98931.22
2018-12-22T02:03:57.961Z,98929.45
2018-12-22T02:06:29.075Z,98935.38
2018-12-22T02:09:00.156Z,98927.58
2018-12-22T02:11:31.248Z,98923.86
2018-12-22T02:14:02.316Z,98930.73
2018-12-22T02:16:33.485Z,98920.63
2018-12-22T02:19:04.577Z,98926.30
2018-12-22T02:21:35.696Z,98929.70
2018-12-22T02:24:06.783Z,98924.30
2018-12-22T02:26:37.777Z,98919.66
2018-12-22T02:29:08.854Z,98913.06
2018-12-22T02:31:39.864Z,98912.15
2018-12-22T02:34:10.938Z,98910.86
2018-12-22T02:36:42.135Z,98898.04
2018-12-22T02:39:13.288Z,98889.44
2018-12-22T02:41:44.383Z,98884.33
2018-12-22T02:44:15.464Z,98886.05
2018-12-22T02:46:46.573Z,98891.04
2018-12-22T02:49:17.668Z,98887.20
2018-12-22T02:51:48.805Z,98885.09
2018-12-22T02:54:19.901Z,98882.38
2018-12-22T02:56:51.010Z,98884.93
2018-12-22T02:59:22.084Z,98871.34
2018-12-22T03:01:53.212Z,98870.06
2018-12-22T03:04:24.293Z,98867.05
2018-12-22T03:06:55.402Z,98855.80
2018-12-22T03:09:26.477Z,98847.83
2018-12-22T03:11:57.631Z,98854.67
2018-12-22T03:14:28.641Z,98848.83
2018-12-22T03:16:59.631Z,98843.48
2018-12-22T03:19:30.727Z,98851.19
2018-12-22T03:22:01.849Z,98844.99
2018-12-22T03:24:32.940Z,98840.93
2018-12-22T03:27:04.036Z,98857.55
2018-12-22T03:29:35.003Z,98853.88
2018-12-22T03:32:06.012Z,98852.55
2018-12-22T03:34:37.107Z,98852.88
2018-12-22T03:37:08.099Z,98842.25
2018-12-22T03:39:39.186Z,98839.05
2018-12-22T03:42:10.192Z,98829.27
2018-12-22T03:44:41.272Z,98842.86
2018-12-22T03:47:12.372Z,98845.05
2018-12-22T03:49:43.443Z,98856.56
2018-12-22T03:52:14.552Z,98865.19
2018-12-22T03:54:45.615Z,98868.52
2018-12-22T03:57:16.729Z,98883.86
2018-12-22T03:59:47.803Z,98893.13
2018-12-22T04:02:18.929Z,98877.11
2018-12-22T04:04:50.016Z,98869.12
2018-12-22T04:07:21.133Z,98878.55
2018-12-22T04:09:52.223Z,98886.06
2018-12-22T04:12:23.327Z,98894.84
2018-12-22T04:14:54.410Z,98895.33
2018-12-22T04:17:25.511Z,98897.57
2018-12-22T04:19:56.500Z,98899.80
2018-12-22T04:22:27.480Z,98902.20
2018-12-22T04:24:58.556Z,98897.25
2018-12-22T04:27:29.546Z,98896.89
2018-12-22T04:30:00.650Z,98891.49
2018-12-22T04:32:31.754Z,98887.63
2018-12-22T04:35:02.834Z,98891.78
2018-12-22T04:37:33.934Z,98889.09
2018-12-22T04:40:05.444Z,98890.05
2018-12-22T04:42:36.446Z,98881.87
2018-12-22T04:45:07.421Z,98878.03
2018-12-22T04:47:40.038Z,98887.14
2018-12-22T04:50:11.281Z,98883.47
2018-12-22T04:52:42.395Z,98890.18
2018-12-22T04:55:13.492Z,98884.78
2018-12-22T04:57:44.604Z,98882.38
2018-12-22T05:00:15.744Z,98882.66
2018-12-22T05:02:46.856Z,98884.42
2018-12-22T05:05:18.040Z,98886.94
2018-12-22T05:07:49.051Z,98885.86
2018-12-22T05:10:20.120Z,98882.22
2018-12-22T05:12:51.125Z,98884.58
2018-12-22T05:15:22.225Z,98882.15
2018-12-22T05:17:53.367Z,98879.27
2018-12-22T05:20:24.477Z,98881.98
2018-12-22T05:22:55.602Z,98880.91
2018-12-22T05:25:26.551Z,98886.82
2018-12-22T05:27:57.647Z,98893.89
2018-12-22T05:30:35.367Z,98887.66
2018-12-22T05:33:06.511Z,98902.05
2018-12-22T05:35:37.492Z,98904.61
2018-12-22T05:38:08.603Z,98903.80
2018-12-22T05:40:39.561Z,98919.16
2018-12-22T05:43:10.660Z,98918.03
2018-12-22T05:45:41.740Z,98920.23
2018-12-22T05:48:12.852Z,98926.02
2018-12-22T05:50:43.979Z,98931.10
2018-12-22T05:53:15.097Z,98936.41
2018-12-22T05:55:46.171Z,98939.77
2018-12-22T05:58:18.127Z,98945.52
2018-12-22T06:00:49.555Z,98941.02
2018-12-22T06:03:20.641Z,98947.25
2018-12-22T06:05:51.628Z,98943.28
2018-12-22T06:08:22.903Z,98935.73
2018-12-22T06:10:54.256Z,98948.41
2018-12-22T06:13:25.365Z,98940.89
2018-12-22T06:15:56.336Z,98940.57
2018-12-22T06:18:27.883Z,98954.00
2018-12-22T06:20:59.056Z,98946.80
2018-12-22T06:23:30.376Z,98945.84
2018-12-22T06:26:01.447Z,98944.73
2018-12-22T06:28:32.698Z,98943.73
2018-12-22T06:31:03.767Z,98951.00
2018-12-22T06:33:34.759Z,98959.16
2018-12-22T06:36:05.843Z,98954.16
2018-12-22T06:38:36.817Z,98958.95
2018-12-22T06:41:07.904Z,98966.19
2018-12-22T06:43:39.002Z,98973.11
2018-12-22T06:46:09.959Z,98973.86
2018-12-22T06:48:40.957Z,98977.50
2018-12-22T06:51:12.030Z,98986.09
2018-12-22T06:53:43.125Z,98985.33
2018-12-22T06:56:14.624Z,98984.73
2018-12-22T06:58:45.611Z,98992.09
2018-12-22T07:01:16.728Z,98995.77
2018-12-22T07:03:47.729Z,99004.11
2018-12-22T07:06:19.769Z,99005.36
2018-12-22T07:08:50.883Z,99023.67
2018-12-22T07:11:23.157Z,99020.91
2018-12-22T07:13:54.271Z,99031.02
2018-12-22T07:16:25.246Z,99027.63
2018-12-22T07:18:56.276Z,99034.02
2018-12-22T07:21:27.355Z,99028.13
2018-12-22T07:23:58.508Z,99029.34
2018-12-22T07:26:29.476Z,99037.38
2018-12-22T07:29:00.610Z,99040.09
2018-12-22T07:31:31.590Z,99053.36
2018-12-22T07:34:02.711Z,99062.83
2018-12-22T07:36:33.854Z,99060.99
2018-12-22T07:39:07.111Z,99056.52
2018-12-22T07:41:38.258Z,99057.95
2018-12-22T07:44:09.299Z,99057.98
2018-12-22T07:46:40.304Z,99059.95
2018-12-22T07:49:11.442Z,99063.11
2018-12-22T07:51:42.539Z,99067.31
2018-12-22T07:54:13.645Z,99074.51
2018-12-22T07:56:44.636Z,99077.06
2018-12-22T07:59:15.732Z,99087.78
2018-12-22T08:01:46.816Z,99098.17
2018-12-22T08:04:17.793Z,99100.88
2018-12-22T08:06:48.879Z,99103.72
2018-12-22T08:09:25.548Z,99112.55
2018-12-22T08:12:01.796Z,99101.36
2018-12-22T08:14:38.148Z,99114.31
2018-12-22T08:17:14.495Z,99120.50
2018-12-22T08:19:46.368Z,99119.39
2018-12-22T08:22:17.398Z,99148.44
2018-12-22T08:24:49.143Z,99143.48
2018-12-22T08:27:20.292Z,99153.16
2018-12-22T08:29:51.396Z,99157.31
2018-12-22T08:32:22.482Z,99163.55
2018-12-22T08:34:53.580Z,99179.05
2018-12-22T08:37:24.656Z,99193.94
2018-12-22T08:39:55.632Z,99193.45
2018-12-22T08:42:26.720Z,99193.25
2018-12-22T08:44:57.812Z,99201.08
2018-12-22T08:47:28.909Z,99203.48
2018-12-22T08:50:08.782Z,99209.55
2018-12-22T08:52:33.133Z,99212.33
2018-12-22T08:55:04.696Z,99217.48
2018-12-22T08:57:37.774Z,99220.20
2018-12-22T09:00:12.115Z,99226.28
2018-12-22T09:02:43.194Z,99228.52
2018-12-22T09:05:14.320Z,99231.75
2018-12-22T09:07:45.392Z,99236.23
2018-12-22T09:10:16.503Z,99232.23
2018-12-22T09:12:47.641Z,99247.90
2018-12-22T09:15:18.812Z,99246.95
2018-12-22T09:17:49.951Z,99257.98
2018-12-22T09:20:21.100Z,99253.98
2018-12-22T09:22:52.184Z,99261.13
2018-12-22T09:25:23.393Z,99269.13
2018-12-22T09:27:54.478Z,99274.23
2018-12-22T09:30:25.584Z,99279.04
2018-12-22T09:32:56.625Z,99281.28
2018-12-22T09:35:27.682Z,99288.48
2018-12-22T09:37:58.819Z,99295.88
2018-12-22T09:40:29.922Z,99305.14
2018-12-22T09:43:01.856Z,99300.83
2018-12-22T09:45:32.953Z,99308.55
2018-12-22T09:48:04.117Z,99306.47
2018-12-22T09:50:35.295Z,99318.19
2018-12-22T09:53:06.453Z,99317.50
2018-12-22T09:55:37.661Z,99322.46
2018-12-22T09:58:08.796Z,99328.66
2018-12-22T10:00:39.896Z,99336.00
2018-12-22T10:03:10.993Z,99333.89
2018-12-22T10:05:44.007Z,99336.81
2018-12-22T10:08:15.092Z,99335.69
2018-12-22T10:10:46.235Z,99349.16
2018-12-22T10:13:17.203Z,99338.29
2018-12-22T10:15:48.309Z,99334.30
2018-12-22T10:18:19.400Z,99343.78
2018-12-22T10:20:50.639Z,99338.45
2018-12-22T10:23:21.646Z,99358.22
2018-12-22T10:25:52.632Z,99353.95
2018-12-22T10:28:23.785Z,99360.98
2018-12-22T10:30:54.883Z,99358.27
2018-12-22T10:33:25.972Z,99373.61
2018-12-22T10:35:57.066Z,99375.37
2018-12-22T10:38:28.162Z,99375.55
2018-12-22T10:40:59.319Z,99377.19
2018-12-22T10:43:30.400Z,99378.98
2018-12-22T10:46:01.547Z,99381.50
2018-12-22T10:48:32.693Z,99377.83
2018-12-22T10:51:03.795Z,99387.09
2018-12-22T10:53:34.863Z,99387.42
2018-12-22T10:56:06.094Z,99384.42
2018-12-22T10:58:37.260Z,99382.88
2018-12-22T11:01:08.386Z,99384.52
2018-12-22T11:03:40.467Z,99390.28
2018-12-22T11:06:11.495Z,99382.77
2018-12-22T11:08:44.084Z,99374.54
2018-12-22T11:11:15.611Z,99374.54
2018-12-22T11:13:46.693Z,99368.95
2018-12-22T11:16:17.959Z,99364.03
2018-12-22T11:18:49.157Z,99374.95
2018-12-22T11:21:20.352Z,99375.48
2018-12-22T11:23:51.446Z,99379.75
2018-12-22T11:26:22.445Z,99379.59
2018-12-22T11:28:53.523Z,99372.14
2018-12-22T11:31:25.806Z,99368.78
2018-12-22T11:33:56.946Z,99376.40
2018-12-22T11:36:28.047Z,99384.08
2018-12-22T11:38:59.126Z,99394.52
2018-12-22T11:41:30.364Z,99387.91
2018-12-22T11:44:01.491Z,99388.39
2018-12-22T11:46:34.181Z,99389.52
2018-12-22T11:49:25.553Z,99387.00
2018-12-22T11:51:56.534Z,99393.88
2018-12-22T11:54:27.608Z,99396.39
2018-12-22T11:56:58.699Z,99397.55
2018-12-22T11:59:29.787Z,99402.84
2018-12-22T12:02:09.300Z,99406.98
2018-12-22T12:04:34.031Z,99405.03
2018-12-22T12:07:05.132Z,99409.88
2018-12-22T12:09:36.328Z,99430.27
2018-12-22T12:12:07.468Z,99430.34
2018-12-22T12:14:38.767Z,99439.41
2018-12-22T12:19:21.503Z,99436.86
2018-12-22T12:21:52.576Z,99435.98
2018-12-22T12:24:23.956Z,99436.30
2018-12-22T12:26:55.046Z,99432.62
2018-12-22T12:29:26.702Z,99435.43
2018-12-22T12:31:57.780Z,99440.08
2018-12-22T12:34:28.912Z,99434.73
2018-12-22T12:36:59.992Z,99437.81
2018-12-22T12:39:31.104Z,99432.07
2018-12-22T12:42:02.188Z,99435.96
2018-12-22T12:44:33.367Z,99443.20
2018-12-22T12:47:04.475Z,99453.23
2018-12-22T12:49:35.572Z,99455.36
2018-12-22T12:52:06.647Z,99459.72
2018-12-22T12:54:37.745Z,99467.08
2018-12-22T12:57:08.879Z,99465.20
2018-12-22T12:59:39.975Z,99460.09
2018-12-22T13:02:10.979Z,99468.57
2018-12-22T13:04:42.198Z,99478.89
2018-12-22T13:07:13.325Z,99482.00
2018-12-22T13:09:44.425Z,99468.21
2018-12-22T13:12:21.236Z,99475.61
2018-12-22T13:14:52.855Z,99479.03
2018-12-22T13:17:30.625Z,99495.03
2018-12-22T13:20:01.913Z,99502.17
2018-12-22T13:22:32.999Z,99500.78
2018-12-22T13:25:04.125Z,99506.92
2018-12-22T13:27:35.207Z,99508.52
2018-12-22T13:30:09.092Z,99512.03
2018-12-22T13:32:40.231Z,99514.27
2018-12-22T13:35:11.347Z,99521.80
2018-12-22T13:37:42.429Z,99525.42
2018-12-22T13:40:13.542Z,99535.66
2018-12-22T13:42:44.625Z,99539.81
2018-12-22T13:45:15.760Z,99544.72
2018-12-22T13:47:46.952Z,99545.78
2018-12-22T13:50:18.168Z,99546.90
2018-12-22T13:52:49.248Z,99554.58
2018-12-22T13:55:20.563Z,99557.20
2018-12-22T13:57:51.631Z,99559.87
2018-12-22T14:00:23.135Z,99569.45
2018-12-22T14:02:54.211Z,99562.86
2018-12-22T14:05:26.310Z,99558.80
2018-12-22T14:07:57.495Z,99556.04
2018-12-22T14:10:28.581Z,99556.83
2018-12-22T14:12:59.554Z,99558.21
2018-12-22T14:15:31.063Z,99557.20
2018-12-22T14:18:41.679Z,99562.16
2018-12-22T14:21:14.611Z,99568.41
2018-12-22T14:24:46.746Z,99568.34
2018-12-22T14:27:17.864Z,99568.77
2018-12-22T14:29:48.972Z,99570.97
2018-12-22T14:32:26.812Z,99567.65
2018-12-22T14:35:40.388Z,99576.40
2018-12-22T14:38:11.347Z,99584.59
2018-12-22T14:40:42.445Z,99581.41
2018-12-22T14:43:13.520Z,99590.14
2018-12-22T14:45:44.616Z,99602.08
2018-12-22T14:48:16.763Z,99595.58
2018-12-22T14:50:47.860Z,99602.51
2018-12-22T14:53:18.942Z,99607.73
2018-12-22T14:55:49.978Z,99608.47
2018-12-22T14:58:26.301Z,99617.92
2018-12-22T15:00:57.410Z,99624.62
2018-12-22T15:03:28.539Z,99620.45
2018-12-22T15:05:59.583Z,99627.02
2018-12-22T15:08:30.613Z,99632.12
2018-12-22T15:11:03.617Z,99627.34
2018-12-22T15:13:34.879Z,99626.97
2018-12-22T15:16:05.979Z,99636.88
2018-12-22T15:18:37.093Z,99638.33
2018-12-22T15:21:08.209Z,99639.59
2018-12-22T15:23:39.287Z,99638.95
2018-12-22T15:26:10.928Z,99638.00
2018-12-22T15:28:47.145Z,99637.36
2018-12-22T15:31:15.323Z,99643.91
2018-12-22T15:33:46.396Z,99642.80
2018-12-22T15:36:17.717Z,99652.70
2018-12-22T15:38:48.791Z,99648.76
2018-12-22T15:41:19.904Z,99658.41
2018-12-22T15:43:50.986Z,99664.80
2018-12-22T15:46:22.209Z,99669.48
2018-12-22T15:48:53.404Z,99665.92
2018-12-22T15:51:24.512Z,99666.09
2018-12-22T15:53:55.590Z,99672.31
2018-12-22T15:56:26.688Z,99672.58
2018-12-22T15:58:57.831Z,99674.81
2018-12-22T16:01:28.962Z,99671.45
2018-12-22T16:03:59.936Z,99671.77
2018-12-22T16:06:31.039Z,99679.55
2018-12-22T16:09:02.181Z,99686.91
2018-12-22T16:11:34.433Z,99682.10
2018-12-22T16:14:05.549Z,99692.36
2018-12-22T16:16:36.636Z,99689.95
2018-12-22T16:19:07.836Z,99695.86
2018-12-22T16:21:38.944Z,99690.64
2018-12-22T16:24:10.024Z,99697.94
2018-12-22T16:26:41.123Z,99679.19
2018-12-22T16:29:19.667Z,99689.69
2018-12-22T16:31:50.662Z,99688.73
2018-12-22T16:34:21.637Z,99699.64
2018-12-22T16:36:52.736Z,99696.49
2018-12-22T16:39:23.834Z,99701.11
2018-12-22T16:41:54.936Z,99699.05
2018-12-22T16:44:26.111Z,99699.16
2018-12-22T16:46:57.228Z,99699.25
2018-12-22T16:49:28.338Z,99705.98
2018-12-22T16:51:59.618Z,99705.64
2018-12-22T16:54:30.714Z,99700.75
2018-12-22T16:57:01.812Z,99704.47
2018-12-22T16:59:35.660Z,99705.00
2018-12-22T17:02:25.384Z,99704.20
2018-12-22T17:04:56.537Z,99709.63
2018-12-22T17:07:27.703Z,99707.41
2018-12-22T17:09:58.703Z,99703.71
2018-12-22T17:12:29.692Z,99710.91
2018-12-22T17:15:00.839Z,99708.98
2018-12-22T17:17:32.040Z,99719.08
2018-12-22T17:20:03.164Z,99718.59
2018-12-22T17:22:53.373Z,99719.55
2018-12-22T17:25:48.836Z,99718.31
2018-12-22T17:28:28.038Z,99723.75
2018-12-22T17:30:52.939Z,99725.17
2018-12-22T17:33:24.061Z,99724.88
2018-12-22T17:35:56.164Z,99734.77
2018-12-22T17:38:28.052Z,99732.95
2018-12-22T17:41:01.136Z,99734.45
2018-12-22T17:43:33.409Z,99738.38
2018-12-22T17:46:04.481Z,99750.92
2018-12-22T17:48:35.814Z,99754.32
2018-12-22T17:51:06.804Z,99757.98
2018-12-22T17:53:37.908Z,99759.02
2018-12-22T17:56:09.017Z,99767.16
2018-12-22T17:58:40.124Z,99772.92
2018-12-22T18:01:11.210Z,99771.95
2018-12-22T18:03:42.321Z,99777.28
2018-12-22T18:06:13.416Z,99775.86
2018-12-22T18:08:44.699Z,99780.65
2018-12-22T18:11:15.727Z,99780.16
2018-12-22T18:13:47.893Z,99778.25
2018-12-22T18:16:18.972Z,99785.72
2018-12-22T18:18:50.109Z,99783.02
2018-12-22T18:21:21.215Z,99782.22
2018-12-22T18:23:52.321Z,99786.20
2018-12-22T18:26:25.162Z,99786.09
2018-12-22T18:28:56.320Z,99790.63
2018-12-22T18:31:27.420Z,99795.42
2018-12-22T18:33:58.522Z,99791.32
2018-12-22T18:36:29.520Z,99789.36
2018-12-22T18:39:00.715Z,99797.25
2018-12-22T18:41:32.161Z,99794.52
2018-12-22T18:44:03.463Z,99798.58
2018-12-22T18:46:36.390Z,99800.13
2018-12-22T18:49:07.449Z,99797.09
2018-12-22T18:51:38.633Z,99815.10
2018-12-22T18:54:09.608Z,99817.50
2018-12-22T18:56:40.693Z,99822.30
2018-12-22T18:59:11.844Z,99825.70
2018-12-22T19:01:42.919Z,99819.83
2018-12-22T19:04:14.700Z,99823.05
2018-12-22T19:06:45.683Z,99825.22
2018-12-22T19:09:26.485Z,99827.77
2018-12-22T19:11:57.831Z,99828.69
2018-12-22T19:14:29.208Z,99834.98
2018-12-22T19:17:00.340Z,99836.09
2018-12-22T19:19:31.458Z,99841.78
2018-12-22T19:22:02.541Z,99839.86
2018-12-22T19:24:33.640Z,99835.13
2018-12-22T19:27:04.825Z,99838.80
2018-12-22T19:29:36.133Z,99843.91
2018-12-22T19:32:07.208Z,99854.53
2018-12-22T19:34:38.303Z,99853.68
2018-12-22T19:37:09.385Z,99855.16
2018-12-22T19:39:40.490Z,99848.89
2018-12-22T19:42:11.468Z,99856.07
2018-12-22T19:44:42.570Z,99856.27
2018-12-22T19:47:13.771Z,99856.70
2018-12-22T19:49:44.779Z,99862.41
2018-12-22T19:52:18.792Z,99857.28
2018-12-22T19:54:49.860Z,99862.20
2018-12-22T19:57:20.888Z,99872.26
2018-12-22T19:59:51.988Z,99870.80
2018-12-22T20:02:23.060Z,99872.32
2018-12-22T20:04:54.294Z,99867.79
2018-12-22T20:07:25.370Z,99869.86
2018-12-22T20:09:56.463Z,99872.05
2018-12-22T20:12:27.466Z,99875.78
2018-12-22T20:14:58.545Z,99873.86
2018-12-22T20:17:30.572Z,99872.64
2018-12-22T20:20:01.718Z,99869.01
2018-12-22T20:22:32.799Z,99875.88
2018-12-22T20:25:03.920Z,99882.73
2018-12-22T20:27:35.203Z,99885.14
2018-12-22T20:30:07.481Z,99887.69
2018-12-22T20:32:38.628Z,99895.86
2018-12-22T20:35:09.609Z,99889.55
2018-12-22T20:37:40.705Z,99875.54
2018-12-22T20:40:11.805Z,99878.87
2018-12-22T20:42:42.939Z,99879.21
2018-12-22T20:45:14.218Z,99879.58
2018-12-22T20:47:45.220Z,99882.67
2018-12-22T20:50:16.359Z,99888.36
2018-12-22T20:52:47.495Z,99895.28
2018-12-22T20:55:18.603Z,99898.69
2018-12-22T20:57:49.565Z,99902.37
2018-12-22T21:00:20.672Z,99901.84
2018-12-22T21:02:51.752Z,99910.47
2018-12-22T21:05:22.866Z,99909.44
2018-12-22T21:07:54.956Z,99915.67
2018-12-22T21:10:26.302Z,99917.77
2018-12-22T21:12:57.487Z,99920.08
2018-12-22T21:15:28.593Z,99917.36
2018-12-22T21:17:59.625Z,99918.00
2018-12-22T21:20:30.630Z,99920.56
2018-12-22T21:23:01.700Z,99916.14
2018-12-22T21:25:33.043Z,99917.80
2018-12-22T21:28:04.117Z,99919.61
2018-12-22T21:30:35.216Z,99922.91
2018-12-22T21:33:06.196Z,99922.16
2018-12-22T21:35:37.318Z,99922.59
2018-12-22T21:38:08.387Z,99936.97
2018-12-22T21:40:39.487Z,99937.23
2018-12-22T21:43:10.565Z,99944.41
2018-12-22T21:45:41.666Z,99948.57
2018-12-22T21:48:12.741Z,99952.84
2018-12-22T21:50:44.080Z,99948.25
2018-12-22T21:53:15.263Z,99946.45
2018-12-22T21:55:46.430Z,99950.01
2018-12-22T21:58:17.599Z,99939.09
2018-12-22T22:00:48.702Z,99936.37
2018-12-22T22:03:19.776Z,99937.64
2018-12-22T22:05:50.911Z,99929.22
2018-12-22T22:08:21.984Z,99938.59
2018-12-22T22:10:53.552Z,99939.15
2018-12-22T22:13:24.722Z,99945.17
2018-12-22T22:15:55.834Z,99940.90
2018-12-22T22:18:26.932Z,99946.25
2018-12-22T22:20:57.929Z,99956.80
2018-12-22T22:23:29.062Z,99962.69
2018-12-22T22:26:05.371Z,99965.82
2018-12-22T22:28:41.716Z,99962.70
2018-12-22T22:31:18.006Z,99970.59
2018-12-22T22:33:54.323Z,99974.17
2018-12-22T22:36:30.612Z,99978.41
2018-12-22T22:39:01.712Z,99983.98
2018-12-22T22:41:33.664Z,99990.96
2018-12-22T22:44:04.744Z,99992.98
2018-12-22T22:46:35.832Z,99994.81
2018-12-22T22:49:06.925Z,99995.09
2018-12-22T22:51:38.024Z,99996.52
2018-12-22T22:54:09.113Z,100002.99
2018-12-22T22:56:40.203Z,100001.01
2018-12-22T22:59:11.289Z,99997.02
2018-12-22T23:01:42.383Z,100000.86
2018-12-22T23:04:13.567Z,100003.66
2018-12-22T23:06:44.789Z,100008.94
2018-12-22T23:09:15.871Z,100006.09
2018-12-22T23:11:46.976Z,99999.38
2018-12-22T23:14:18.160Z,100002.75
2018-12-22T23:16:50.425Z,99999.61
2018-12-22T23:19:21.525Z,100007.76
2018-12-22T23:21:52.632Z,100013.51
2018-12-22T23:24:23.585Z,100012.07
2018-12-22T23:26:54.751Z,100005.63
2018-12-22T23:29:25.840Z,100006.89
2018-12-22T23:31:56.954Z,100007.84
2018-12-22T23:34:27.921Z,100013.19
2018-12-22T23:36:59.032Z,100020.91
2018-12-22T23:39:30.114Z,100029.38
2018-12-22T23:42:01.232Z,100028.72
2018-12-22T23:44:32.337Z,100020.67
2018-12-22T23:47:03.444Z,100028.59
2018-12-22T23:49:34.534Z,100026.96
2018-12-22T23:52:05.676Z,100032.26
2018-12-22T23:54:36.780Z,100035.44
2018-12-22T23:57:07.890Z,100042.95
2018-12-22T23:59:38.975Z,100051.31
